sensor_id;sensor_type;location;lat;lon;timestamp;P1;durP1;ratioP1;P2;durP2;ratioP2
19897;SDS011;10111;50.814;4.572;2023-02-08T00:00:57;19.87;;;12.90;;
19897;SDS011;10111;50.814;4.572;2023-02-08T00:03:22;20.37;;;12.80;;
19897;SDS011;10111;50.814;4.572;2023-02-08T00:05:48;27.47;;;15.27;;
19897;SDS011;10111;50.814;4.572;2023-02-08T00:08:14;25.70;;;14.93;;
19897;SDS011;10111;50.814;4.572;2023-02-08T00:10:40;20.87;;;11.80;;
19897;SDS011;10111;50.814;4.572;2023-02-08T00:13:07;23.20;;;12.37;;
19897;SDS011;10111;50.814;4.572;2023-02-08T00:15:32;18.17;;;11.83;;
19897;SDS011;10111;50.814;4.572;2023-02-08T00:17:58;25.23;;;12.93;;
19897;SDS011;10111;50.814;4.572;2023-02-08T00:20:23;20.53;;;12.07;;
19897;SDS011;10111;50.814;4.572;2023-02-08T00:22:49;22.17;;;12.80;;
19897;SDS011;10111;50.814;4.572;2023-02-08T00:25:15;20.27;;;11.77;;
19897;SDS011;10111;50.814;4.572;2023-02-08T00:27:40;21.47;;;12.53;;
19897;SDS011;10111;50.814;4.572;2023-02-08T00:30:06;18.63;;;10.90;;
19897;SDS011;10111;50.814;4.572;2023-02-08T00:32:33;21.47;;;12.87;;
19897;SDS011;10111;50.814;4.572;2023-02-08T00:34:58;18.20;;;10.07;;
19897;SDS011;10111;50.814;4.572;2023-02-08T00:37:24;16.27;;;10.83;;
19897;SDS011;10111;50.814;4.572;2023-02-08T00:39:49;20.87;;;11.07;;
19897;SDS011;10111;50.814;4.572;2023-02-08T00:42:15;20.87;;;12.50;;
19897;SDS011;10111;50.814;4.572;2023-02-08T00:44:41;18.77;;;12.10;;
19897;SDS011;10111;50.814;4.572;2023-02-08T00:47:06;14.97;;;11.40;;
19897;SDS011;10111;50.814;4.572;2023-02-08T00:49:32;18.40;;;11.53;;
19897;SDS011;10111;50.814;4.572;2023-02-08T00:51:58;20.87;;;13.10;;
19897;SDS011;10111;50.814;4.572;2023-02-08T00:54:23;16.83;;;10.70;;
19897;SDS011;10111;50.814;4.572;2023-02-08T00:56:49;15.07;;;11.33;;
19897;SDS011;10111;50.814;4.572;2023-02-08T00:59:15;21.30;;;11.93;;
19897;SDS011;10111;50.814;4.572;2023-02-08T01:01:40;21.60;;;11.60;;
19897;SDS011;10111;50.814;4.572;2023-02-08T01:04:06;19.10;;;10.60;;
19897;SDS011;10111;50.814;4.572;2023-02-08T01:06:32;13.93;;;10.20;;
19897;SDS011;10111;50.814;4.572;2023-02-08T01:08:58;18.17;;;11.30;;
19897;SDS011;10111;50.814;4.572;2023-02-08T01:11:24;18.93;;;10.70;;
19897;SDS011;10111;50.814;4.572;2023-02-08T01:13:51;19.20;;;10.50;;
19897;SDS011;10111;50.814;4.572;2023-02-08T01:16:19;15.67;;;10.73;;
19897;SDS011;10111;50.814;4.572;2023-02-08T01:18:50;14.43;;;10.43;;
19897;SDS011;10111;50.814;4.572;2023-02-08T01:21:21;14.27;;;9.70;;
19897;SDS011;10111;50.814;4.572;2023-02-08T01:23:49;18.10;;;11.33;;
19897;SDS011;10111;50.814;4.572;2023-02-08T01:26:16;18.43;;;10.93;;
19897;SDS011;10111;50.814;4.572;2023-02-08T01:28:42;21.10;;;11.73;;
19897;SDS011;10111;50.814;4.572;2023-02-08T01:31:09;14.60;;;9.70;;
19897;SDS011;10111;50.814;4.572;2023-02-08T01:33:40;19.13;;;9.93;;
19897;SDS011;10111;50.814;4.572;2023-02-08T01:36:06;16.30;;;9.97;;
19897;SDS011;10111;50.814;4.572;2023-02-08T01:38:33;21.70;;;11.17;;
19897;SDS011;10111;50.814;4.572;2023-02-08T01:40:59;21.27;;;11.53;;
19897;SDS011;10111;50.814;4.572;2023-02-08T01:45:52;14.73;;;10.20;;
19897;SDS011;10111;50.814;4.572;2023-02-08T01:48:31;18.10;;;10.60;;
19897;SDS011;10111;50.814;4.572;2023-02-08T01:51:14;17.50;;;11.87;;
19897;SDS011;10111;50.814;4.572;2023-02-08T01:53:44;19.43;;;9.80;;
19897;SDS011;10111;50.814;4.572;2023-02-08T01:56:12;22.53;;;10.73;;
19897;SDS011;10111;50.814;4.572;2023-02-08T01:58:45;19.80;;;11.00;;
19897;SDS011;10111;50.814;4.572;2023-02-08T02:01:15;13.97;;;9.30;;
19897;SDS011;10111;50.814;4.572;2023-02-08T02:03:41;19.87;;;11.43;;
19897;SDS011;10111;50.814;4.572;2023-02-08T02:06:12;20.60;;;10.77;;
19897;SDS011;10111;50.814;4.572;2023-02-08T02:08:45;19.30;;;11.43;;
19897;SDS011;10111;50.814;4.572;2023-02-08T02:11:17;20.17;;;10.57;;
19897;SDS011;10111;50.814;4.572;2023-02-08T02:13:44;21.43;;;11.13;;
19897;SDS011;10111;50.814;4.572;2023-02-08T02:16:12;24.60;;;12.33;;
19897;SDS011;10111;50.814;4.572;2023-02-08T02:18:37;18.03;;;11.63;;
19897;SDS011;10111;50.814;4.572;2023-02-08T02:24:20;15.40;;;9.50;;
19897;SDS011;10111;50.814;4.572;2023-02-08T02:27:08;18.40;;;10.07;;
19897;SDS011;10111;50.814;4.572;2023-02-08T02:35:59;17.80;;;10.40;;
19897;SDS011;10111;50.814;4.572;2023-02-08T02:38:59;17.20;;;10.20;;
19897;SDS011;10111;50.814;4.572;2023-02-08T02:41:37;18.10;;;10.30;;
19897;SDS011;10111;50.814;4.572;2023-02-08T02:44:51;14.13;;;9.30;;
19897;SDS011;10111;50.814;4.572;2023-02-08T02:47:30;17.03;;;10.37;;
19897;SDS011;10111;50.814;4.572;2023-02-08T02:50:05;21.03;;;11.90;;
19897;SDS011;10111;50.814;4.572;2023-02-08T02:52:44;17.17;;;9.57;;
19897;SDS011;10111;50.814;4.572;2023-02-08T02:55:15;15.13;;;9.83;;
19897;SDS011;10111;50.814;4.572;2023-02-08T02:57:45;18.53;;;10.63;;
19897;SDS011;10111;50.814;4.572;2023-02-08T03:00:17;17.07;;;9.57;;
19897;SDS011;10111;50.814;4.572;2023-02-08T03:02:46;18.80;;;10.73;;
19897;SDS011;10111;50.814;4.572;2023-02-08T03:05:12;15.97;;;9.97;;
19897;SDS011;10111;50.814;4.572;2023-02-08T03:13:24;23.23;;;10.70;;
19897;SDS011;10111;50.814;4.572;2023-02-08T03:23:39;17.47;;;10.40;;
19897;SDS011;10111;50.814;4.572;2023-02-08T03:26:15;20.03;;;10.80;;
19897;SDS011;10111;50.814;4.572;2023-02-08T03:32:09;16.43;;;10.43;;
19897;SDS011;10111;50.814;4.572;2023-02-08T03:37:14;20.87;;;11.97;;
19897;SDS011;10111;50.814;4.572;2023-02-08T03:39:46;18.40;;;10.73;;
19897;SDS011;10111;50.814;4.572;2023-02-08T03:42:16;18.93;;;10.93;;
19897;SDS011;10111;50.814;4.572;2023-02-08T03:44:52;20.03;;;10.37;;
19897;SDS011;10111;50.814;4.572;2023-02-08T03:47:25;17.50;;;10.60;;
19897;SDS011;10111;50.814;4.572;2023-02-08T03:50:02;18.33;;;10.97;;
19897;SDS011;10111;50.814;4.572;2023-02-08T03:52:31;18.93;;;10.13;;
19897;SDS011;10111;50.814;4.572;2023-02-08T03:57:32;16.93;;;10.80;;
19897;SDS011;10111;50.814;4.572;2023-02-08T04:00:06;20.87;;;10.50;;
19897;SDS011;10111;50.814;4.572;2023-02-08T04:02:37;19.90;;;10.43;;
19897;SDS011;10111;50.814;4.572;2023-02-08T04:05:07;17.67;;;10.47;;
19897;SDS011;10111;50.814;4.572;2023-02-08T04:07:34;14.60;;;10.17;;
19897;SDS011;10111;50.814;4.572;2023-02-08T04:10:01;18.00;;;11.43;;
19897;SDS011;10111;50.814;4.572;2023-02-08T04:12:27;18.37;;;9.80;;
19897;SDS011;10111;50.814;4.572;2023-02-08T04:14:53;20.60;;;10.80;;
19897;SDS011;10111;50.814;4.572;2023-02-08T04:17:19;19.53;;;11.53;;
19897;SDS011;10111;50.814;4.572;2023-02-08T04:19:44;19.13;;;10.47;;
19897;SDS011;10111;50.814;4.572;2023-02-08T04:22:10;18.73;;;10.00;;
19897;SDS011;10111;50.814;4.572;2023-02-08T04:24:35;19.13;;;11.53;;
19897;SDS011;10111;50.814;4.572;2023-02-08T04:27:01;19.57;;;10.80;;
19897;SDS011;10111;50.814;4.572;2023-02-08T04:29:27;16.00;;;10.10;;
19897;SDS011;10111;50.814;4.572;2023-02-08T04:31:53;16.80;;;9.13;;
19897;SDS011;10111;50.814;4.572;2023-02-08T04:34:18;18.10;;;10.80;;
19897;SDS011;10111;50.814;4.572;2023-02-08T04:36:44;17.37;;;10.07;;
19897;SDS011;10111;50.814;4.572;2023-02-08T04:39:10;20.60;;;11.27;;
19897;SDS011;10111;50.814;4.572;2023-02-08T04:41:35;18.30;;;11.40;;
19897;SDS011;10111;50.814;4.572;2023-02-08T04:44:01;16.00;;;11.10;;
19897;SDS011;10111;50.814;4.572;2023-02-08T04:46:26;20.90;;;10.87;;
19897;SDS011;10111;50.814;4.572;2023-02-08T04:48:52;13.50;;;9.80;;
19897;SDS011;10111;50.814;4.572;2023-02-08T04:51:18;21.70;;;10.73;;
19897;SDS011;10111;50.814;4.572;2023-02-08T04:53:43;22.00;;;11.03;;
19897;SDS011;10111;50.814;4.572;2023-02-08T04:56:09;17.97;;;10.53;;
19897;SDS011;10111;50.814;4.572;2023-02-08T04:58:35;19.60;;;11.43;;
19897;SDS011;10111;50.814;4.572;2023-02-08T05:01:04;19.33;;;10.87;;
19897;SDS011;10111;50.814;4.572;2023-02-08T05:03:31;21.63;;;11.20;;
19897;SDS011;10111;50.814;4.572;2023-02-08T05:05:57;17.53;;;10.90;;
19897;SDS011;10111;50.814;4.572;2023-02-08T05:08:23;17.03;;;9.87;;
19897;SDS011;10111;50.814;4.572;2023-02-08T05:10:50;17.20;;;9.83;;
19897;SDS011;10111;50.814;4.572;2023-02-08T05:13:15;20.27;;;10.87;;
19897;SDS011;10111;50.814;4.572;2023-02-08T05:15:41;16.50;;;10.27;;
19897;SDS011;10111;50.814;4.572;2023-02-08T05:18:07;18.23;;;10.63;;
19897;SDS011;10111;50.814;4.572;2023-02-08T05:20:32;20.37;;;10.50;;
19897;SDS011;10111;50.814;4.572;2023-02-08T05:22:58;18.20;;;10.07;;
19897;SDS011;10111;50.814;4.572;2023-02-08T05:25:24;15.00;;;10.77;;
19897;SDS011;10111;50.814;4.572;2023-02-08T05:27:50;23.67;;;11.77;;
19897;SDS011;10111;50.814;4.572;2023-02-08T05:30:16;17.13;;;11.30;;
19897;SDS011;10111;50.814;4.572;2023-02-08T05:32:41;18.20;;;11.27;;
19897;SDS011;10111;50.814;4.572;2023-02-08T05:35:07;15.63;;;10.67;;
19897;SDS011;10111;50.814;4.572;2023-02-08T05:37:33;17.50;;;9.97;;
19897;SDS011;10111;50.814;4.572;2023-02-08T05:39:58;18.27;;;10.73;;
19897;SDS011;10111;50.814;4.572;2023-02-08T05:42:24;14.00;;;10.17;;
19897;SDS011;10111;50.814;4.572;2023-02-08T05:44:51;20.37;;;10.73;;
19897;SDS011;10111;50.814;4.572;2023-02-08T05:47:16;15.97;;;10.47;;
19897;SDS011;10111;50.814;4.572;2023-02-08T05:49:42;21.20;;;11.40;;
19897;SDS011;10111;50.814;4.572;2023-02-08T05:52:08;18.93;;;12.00;;
19897;SDS011;10111;50.814;4.572;2023-02-08T05:54:34;17.00;;;12.47;;
19897;SDS011;10111;50.814;4.572;2023-02-08T05:56:59;19.33;;;11.73;;
19897;SDS011;10111;50.814;4.572;2023-02-08T05:59:25;20.20;;;12.07;;
19897;SDS011;10111;50.814;4.572;2023-02-08T06:01:51;24.37;;;13.50;;
19897;SDS011;10111;50.814;4.572;2023-02-08T06:04:17;24.70;;;12.73;;
19897;SDS011;10111;50.814;4.572;2023-02-08T06:06:42;20.37;;;12.23;;
19897;SDS011;10111;50.814;4.572;2023-02-08T06:09:08;24.03;;;13.50;;
19897;SDS011;10111;50.814;4.572;2023-02-08T06:11:34;30.20;;;14.73;;
19897;SDS011;10111;50.814;4.572;2023-02-08T06:14:00;21.37;;;13.43;;
19897;SDS011;10111;50.814;4.572;2023-02-08T06:16:26;25.33;;;14.10;;
19897;SDS011;10111;50.814;4.572;2023-02-08T06:18:52;21.50;;;13.17;;
19897;SDS011;10111;50.814;4.572;2023-02-08T06:21:18;19.27;;;12.77;;
19897;SDS011;10111;50.814;4.572;2023-02-08T06:23:44;25.80;;;14.40;;
19897;SDS011;10111;50.814;4.572;2023-02-08T06:26:09;25.07;;;14.40;;
19897;SDS011;10111;50.814;4.572;2023-02-08T06:28:35;27.27;;;13.93;;
19897;SDS011;10111;50.814;4.572;2023-02-08T06:31:01;23.63;;;14.50;;
19897;SDS011;10111;50.814;4.572;2023-02-08T06:33:26;22.80;;;14.30;;
19897;SDS011;10111;50.814;4.572;2023-02-08T06:35:52;20.93;;;13.60;;
19897;SDS011;10111;50.814;4.572;2023-02-08T06:38:18;20.97;;;13.60;;
19897;SDS011;10111;50.814;4.572;2023-02-08T06:40:47;20.73;;;13.60;;
19897;SDS011;10111;50.814;4.572;2023-02-08T06:43:13;21.10;;;13.17;;
19897;SDS011;10111;50.814;4.572;2023-02-08T06:45:40;21.23;;;12.73;;
19897;SDS011;10111;50.814;4.572;2023-02-08T06:48:08;25.60;;;13.27;;
19897;SDS011;10111;50.814;4.572;2023-02-08T06:50:33;28.67;;;13.80;;
19897;SDS011;10111;50.814;4.572;2023-02-08T06:52:59;34.73;;;15.93;;
19897;SDS011;10111;50.814;4.572;2023-02-08T06:55:25;25.10;;;15.57;;
19897;SDS011;10111;50.814;4.572;2023-02-08T06:57:54;21.47;;;12.77;;
19897;SDS011;10111;50.814;4.572;2023-02-08T07:00:20;30.07;;;16.37;;
19897;SDS011;10111;50.814;4.572;2023-02-08T07:02:46;26.97;;;13.33;;
19897;SDS011;10111;50.814;4.572;2023-02-08T07:05:12;38.70;;;14.23;;
19897;SDS011;10111;50.814;4.572;2023-02-08T07:07:38;28.10;;;15.87;;
19897;SDS011;10111;50.814;4.572;2023-02-08T07:10:04;20.37;;;13.47;;
19897;SDS011;10111;50.814;4.572;2023-02-08T07:12:36;23.17;;;13.17;;
19897;SDS011;10111;50.814;4.572;2023-02-08T07:15:02;25.53;;;12.70;;
19897;SDS011;10111;50.814;4.572;2023-02-08T07:17:27;22.93;;;13.20;;
19897;SDS011;10111;50.814;4.572;2023-02-08T07:19:53;33.43;;;13.73;;
19897;SDS011;10111;50.814;4.572;2023-02-08T07:22:19;24.10;;;13.17;;
19897;SDS011;10111;50.814;4.572;2023-02-08T07:24:44;23.33;;;13.83;;
19897;SDS011;10111;50.814;4.572;2023-02-08T07:27:10;24.83;;;15.10;;
19897;SDS011;10111;50.814;4.572;2023-02-08T07:29:37;24.77;;;14.97;;
19897;SDS011;10111;50.814;4.572;2023-02-08T07:32:04;24.83;;;15.00;;
19897;SDS011;10111;50.814;4.572;2023-02-08T07:34:32;27.37;;;15.33;;
19897;SDS011;10111;50.814;4.572;2023-02-08T07:36:59;32.10;;;17.07;;
19897;SDS011;10111;50.814;4.572;2023-02-08T07:39:25;33.83;;;14.93;;
19897;SDS011;10111;50.814;4.572;2023-02-08T07:41:51;27.77;;;14.60;;
19897;SDS011;10111;50.814;4.572;2023-02-08T07:44:16;21.67;;;13.87;;
19897;SDS011;10111;50.814;4.572;2023-02-08T07:46:42;25.83;;;13.50;;
19897;SDS011;10111;50.814;4.572;2023-02-08T07:49:08;26.60;;;14.90;;
19897;SDS011;10111;50.814;4.572;2023-02-08T07:51:34;29.33;;;17.17;;
19897;SDS011;10111;50.814;4.572;2023-02-08T07:54:00;41.13;;;18.60;;
19897;SDS011;10111;50.814;4.572;2023-02-08T07:56:26;32.40;;;16.27;;
19897;SDS011;10111;50.814;4.572;2023-02-08T07:58:52;30.60;;;16.40;;
19897;SDS011;10111;50.814;4.572;2023-02-08T08:01:17;28.80;;;15.23;;
19897;SDS011;10111;50.814;4.572;2023-02-08T08:03:43;29.10;;;15.03;;
19897;SDS011;10111;50.814;4.572;2023-02-08T08:06:08;32.47;;;15.30;;
19897;SDS011;10111;50.814;4.572;2023-02-08T08:08:34;31.87;;;14.80;;
19897;SDS011;10111;50.814;4.572;2023-02-08T08:11:00;38.90;;;20.40;;
19897;SDS011;10111;50.814;4.572;2023-02-08T08:13:25;37.00;;;20.40;;
19897;SDS011;10111;50.814;4.572;2023-02-08T08:15:51;29.30;;;17.60;;
19897;SDS011;10111;50.814;4.572;2023-02-08T08:18:17;30.70;;;16.67;;
19897;SDS011;10111;50.814;4.572;2023-02-08T08:20:42;25.17;;;14.20;;
19897;SDS011;10111;50.814;4.572;2023-02-08T08:23:08;24.27;;;15.57;;
19897;SDS011;10111;50.814;4.572;2023-02-08T08:25:33;25.53;;;15.70;;
19897;SDS011;10111;50.814;4.572;2023-02-08T08:28:00;28.50;;;15.10;;
19897;SDS011;10111;50.814;4.572;2023-02-08T08:30:26;27.43;;;15.87;;
19897;SDS011;10111;50.814;4.572;2023-02-08T08:32:52;28.13;;;15.27;;
19897;SDS011;10111;50.814;4.572;2023-02-08T08:35:18;23.90;;;16.90;;
19897;SDS011;10111;50.814;4.572;2023-02-08T08:37:44;23.27;;;16.00;;
19897;SDS011;10111;50.814;4.572;2023-02-08T08:40:09;25.50;;;15.23;;
19897;SDS011;10111;50.814;4.572;2023-02-08T08:42:35;24.03;;;15.60;;
19897;SDS011;10111;50.814;4.572;2023-02-08T08:45:03;26.33;;;14.63;;
19897;SDS011;10111;50.814;4.572;2023-02-08T08:47:30;28.97;;;16.20;;
19897;SDS011;10111;50.814;4.572;2023-02-08T08:49:55;30.13;;;16.13;;
19897;SDS011;10111;50.814;4.572;2023-02-08T08:52:21;27.10;;;16.10;;
19897;SDS011;10111;50.814;4.572;2023-02-08T08:54:47;21.97;;;13.97;;
19897;SDS011;10111;50.814;4.572;2023-02-08T08:57:12;24.20;;;14.50;;
19897;SDS011;10111;50.814;4.572;2023-02-08T08:59:38;19.93;;;12.53;;
19897;SDS011;10111;50.814;4.572;2023-02-08T09:02:04;21.87;;;14.03;;
19897;SDS011;10111;50.814;4.572;2023-02-08T09:04:29;21.63;;;13.60;;
19897;SDS011;10111;50.814;4.572;2023-02-08T09:06:55;22.70;;;13.57;;
19897;SDS011;10111;50.814;4.572;2023-02-08T09:09:21;22.57;;;14.90;;
19897;SDS011;10111;50.814;4.572;2023-02-08T09:11:47;20.77;;;13.60;;
19897;SDS011;10111;50.814;4.572;2023-02-08T09:14:13;20.93;;;13.87;;
19897;SDS011;10111;50.814;4.572;2023-02-08T09:16:42;19.67;;;12.47;;
19897;SDS011;10111;50.814;4.572;2023-02-08T09:19:12;18.60;;;12.77;;
19897;SDS011;10111;50.814;4.572;2023-02-08T09:21:39;20.30;;;13.73;;
19897;SDS011;10111;50.814;4.572;2023-02-08T09:24:05;21.23;;;12.87;;
19897;SDS011;10111;50.814;4.572;2023-02-08T09:26:31;24.67;;;12.70;;
19897;SDS011;10111;50.814;4.572;2023-02-08T09:28:57;23.53;;;13.17;;
19897;SDS011;10111;50.814;4.572;2023-02-08T09:31:27;23.17;;;12.70;;
19897;SDS011;10111;50.814;4.572;2023-02-08T09:33:56;22.67;;;12.23;;
19897;SDS011;10111;50.814;4.572;2023-02-08T09:36:24;14.77;;;11.33;;
19897;SDS011;10111;50.814;4.572;2023-02-08T09:39:12;17.93;;;11.13;;
19897;SDS011;10111;50.814;4.572;2023-02-08T09:44:52;15.83;;;11.43;;
19897;SDS011;10111;50.814;4.572;2023-02-08T09:48:05;17.13;;;10.63;;
19897;SDS011;10111;50.814;4.572;2023-02-08T09:50:40;19.23;;;10.37;;
19897;SDS011;10111;50.814;4.572;2023-02-08T09:55:49;18.57;;;10.10;;
19897;SDS011;10111;50.814;4.572;2023-02-08T10:00:58;12.63;;;8.43;;
19897;SDS011;10111;50.814;4.572;2023-02-08T10:05:54;12.57;;;7.97;;
19897;SDS011;10111;50.814;4.572;2023-02-08T10:08:20;9.50;;;6.87;;
19897;SDS011;10111;50.814;4.572;2023-02-08T10:19:00;12.40;;;6.93;;
19897;SDS011;10111;50.814;4.572;2023-02-08T10:24:32;10.37;;;6.40;;
19897;SDS011;10111;50.814;4.572;2023-02-08T10:27:09;9.27;;;5.67;;
19897;SDS011;10111;50.814;4.572;2023-02-08T10:35:25;8.63;;;6.13;;
19897;SDS011;10111;50.814;4.572;2023-02-08T10:40:44;13.83;;;6.30;;
19897;SDS011;10111;50.814;4.572;2023-02-08T10:51:35;10.23;;;6.57;;
19897;SDS011;10111;50.814;4.572;2023-02-08T10:54:01;9.00;;;5.83;;
19897;SDS011;10111;50.814;4.572;2023-02-08T11:01:54;7.53;;;5.57;;
19897;SDS011;10111;50.814;4.572;2023-02-08T11:04:21;8.43;;;5.13;;
19897;SDS011;10111;50.814;4.572;2023-02-08T11:06:47;12.60;;;8.90;;
19897;SDS011;10111;50.814;4.572;2023-02-08T11:09:21;9.40;;;5.97;;
19897;SDS011;10111;50.814;4.572;2023-02-08T11:11:49;8.27;;;5.70;;
19897;SDS011;10111;50.814;4.572;2023-02-08T11:14:22;8.43;;;6.00;;
19897;SDS011;10111;50.814;4.572;2023-02-08T11:16:49;7.17;;;5.40;;
19897;SDS011;10111;50.814;4.572;2023-02-08T11:19:41;7.83;;;5.70;;
19897;SDS011;10111;50.814;4.572;2023-02-08T11:22:14;8.70;;;5.30;;
19897;SDS011;10111;50.814;4.572;2023-02-08T11:24:42;5.87;;;4.07;;
19897;SDS011;10111;50.814;4.572;2023-02-08T11:27:36;8.47;;;5.50;;
19897;SDS011;10111;50.814;4.572;2023-02-08T11:32:38;8.43;;;5.63;;
19897;SDS011;10111;50.814;4.572;2023-02-08T11:37:46;6.90;;;4.70;;
19897;SDS011;10111;50.814;4.572;2023-02-08T11:40:18;19.73;;;12.33;;
19897;SDS011;10111;50.814;4.572;2023-02-08T11:42:59;8.37;;;6.03;;
19897;SDS011;10111;50.814;4.572;2023-02-08T11:45:29;9.50;;;5.50;;
19897;SDS011;10111;50.814;4.572;2023-02-08T11:47:57;6.73;;;4.33;;
19897;SDS011;10111;50.814;4.572;2023-02-08T11:50:26;6.37;;;4.80;;
19897;SDS011;10111;50.814;4.572;2023-02-08T11:52:59;4.53;;;3.67;;
19897;SDS011;10111;50.814;4.572;2023-02-08T11:55:28;5.87;;;3.83;;
19897;SDS011;10111;50.814;4.572;2023-02-08T12:00:36;4.60;;;3.37;;
19897;SDS011;10111;50.814;4.572;2023-02-08T12:03:04;3.93;;;3.13;;
19897;SDS011;10111;50.814;4.572;2023-02-08T12:09:02;4.67;;;2.97;;
19897;SDS011;10111;50.814;4.572;2023-02-08T12:11:48;4.63;;;3.43;;
19897;SDS011;10111;50.814;4.572;2023-02-08T12:17:17;5.43;;;4.10;;
19897;SDS011;10111;50.814;4.572;2023-02-08T12:25:44;6.30;;;4.17;;
19897;SDS011;10111;50.814;4.572;2023-02-08T12:31:10;7.70;;;4.20;;
19897;SDS011;10111;50.814;4.572;2023-02-08T12:43:15;9.43;;;5.07;;
19897;SDS011;10111;50.814;4.572;2023-02-08T12:56:06;6.10;;;4.03;;
19897;SDS011;10111;50.814;4.572;2023-02-08T12:58:43;6.97;;;3.73;;
19897;SDS011;10111;50.814;4.572;2023-02-08T13:01:17;6.07;;;3.93;;
19897;SDS011;10111;50.814;4.572;2023-02-08T13:04:08;7.67;;;3.97;;
19897;SDS011;10111;50.814;4.572;2023-02-08T13:06:41;6.77;;;4.53;;
19897;SDS011;10111;50.814;4.572;2023-02-08T13:09:18;5.67;;;3.83;;
19897;SDS011;10111;50.814;4.572;2023-02-08T13:14:53;5.40;;;4.13;;
19897;SDS011;10111;50.814;4.572;2023-02-08T13:17:24;5.70;;;3.83;;
19897;SDS011;10111;50.814;4.572;2023-02-08T13:19:55;6.70;;;3.50;;
19897;SDS011;10111;50.814;4.572;2023-02-08T13:22:33;5.77;;;3.67;;
19897;SDS011;10111;50.814;4.572;2023-02-08T13:25:04;6.23;;;4.57;;
19897;SDS011;10111;50.814;4.572;2023-02-08T13:27:38;8.33;;;4.03;;
19897;SDS011;10111;50.814;4.572;2023-02-08T13:30:04;5.53;;;4.00;;
19897;SDS011;10111;50.814;4.572;2023-02-08T13:32:33;10.17;;;4.37;;
19897;SDS011;10111;50.814;4.572;2023-02-08T13:35:15;4.70;;;3.87;;
19897;SDS011;10111;50.814;4.572;2023-02-08T13:37:51;7.30;;;3.97;;
19897;SDS011;10111;50.814;4.572;2023-02-08T13:40:28;6.87;;;4.20;;
19897;SDS011;10111;50.814;4.572;2023-02-08T13:43:33;15.50;;;3.30;;
19897;SDS011;10111;50.814;4.572;2023-02-08T13:45:50;7.70;;;3.90;;
19897;SDS011;10111;50.814;4.572;2023-02-08T13:48:17;6.53;;;4.57;;
19897;SDS011;10111;50.814;4.572;2023-02-08T13:53:16;5.03;;;3.40;;
19897;SDS011;10111;50.814;4.572;2023-02-08T13:56:02;5.30;;;3.87;;
19897;SDS011;10111;50.814;4.572;2023-02-08T14:01:23;5.40;;;3.80;;
19897;SDS011;10111;50.814;4.572;2023-02-08T14:04:28;6.90;;;4.17;;
19897;SDS011;10111;50.814;4.572;2023-02-08T14:06:56;5.70;;;3.37;;
19897;SDS011;10111;50.814;4.572;2023-02-08T14:10:04;5.43;;;4.33;;
19897;SDS011;10111;50.814;4.572;2023-02-08T14:12:33;5.77;;;3.77;;
19897;SDS011;10111;50.814;4.572;2023-02-08T14:17:41;5.23;;;3.60;;
19897;SDS011;10111;50.814;4.572;2023-02-08T14:20:26;3.17;;;2.87;;
19897;SDS011;10111;50.814;4.572;2023-02-08T14:23:19;5.10;;;3.67;;
19897;SDS011;10111;50.814;4.572;2023-02-08T14:25:48;7.43;;;4.70;;
19897;SDS011;10111;50.814;4.572;2023-02-08T14:31:03;6.77;;;4.53;;
19897;SDS011;10111;50.814;4.572;2023-02-08T14:33:35;5.93;;;4.07;;
19897;SDS011;10111;50.814;4.572;2023-02-08T14:36:04;5.97;;;3.53;;
19897;SDS011;10111;50.814;4.572;2023-02-08T14:38:53;7.57;;;3.97;;
19897;SDS011;10111;50.814;4.572;2023-02-08T14:53:00;3.77;;;3.03;;
19897;SDS011;10111;50.814;4.572;2023-02-08T14:55:39;7.03;;;3.47;;
19897;SDS011;10111;50.814;4.572;2023-02-08T14:58:27;4.53;;;3.30;;
19897;SDS011;10111;50.814;4.572;2023-02-08T15:03:49;5.40;;;3.60;;
19897;SDS011;10111;50.814;4.572;2023-02-08T15:09:01;5.27;;;3.27;;
19897;SDS011;10111;50.814;4.572;2023-02-08T15:14:22;4.90;;;3.00;;
19897;SDS011;10111;50.814;4.572;2023-02-08T15:16:48;7.27;;;3.80;;
19897;SDS011;10111;50.814;4.572;2023-02-08T15:19:22;4.97;;;3.20;;
19897;SDS011;10111;50.814;4.572;2023-02-08T15:21:51;11.27;;;3.67;;
19897;SDS011;10111;50.814;4.572;2023-02-08T15:24:19;5.30;;;3.63;;
19897;SDS011;10111;50.814;4.572;2023-02-08T15:26:53;3.30;;;2.70;;
19897;SDS011;10111;50.814;4.572;2023-02-08T15:29:24;5.63;;;3.20;;
19897;SDS011;10111;50.814;4.572;2023-02-08T15:31:51;5.87;;;3.23;;
19897;SDS011;10111;50.814;4.572;2023-02-08T15:34:18;5.83;;;3.70;;
19897;SDS011;10111;50.814;4.572;2023-02-08T15:36:50;5.17;;;2.80;;
19897;SDS011;10111;50.814;4.572;2023-02-08T15:41:47;3.43;;;2.60;;
19897;SDS011;10111;50.814;4.572;2023-02-08T15:46:41;8.40;;;3.40;;
19897;SDS011;10111;50.814;4.572;2023-02-08T15:49:15;8.93;;;3.53;;
19897;SDS011;10111;50.814;4.572;2023-02-08T15:51:43;7.73;;;2.83;;
19897;SDS011;10111;50.814;4.572;2023-02-08T15:54:13;5.87;;;3.70;;
19897;SDS011;10111;50.814;4.572;2023-02-08T15:56:44;4.53;;;3.50;;
19897;SDS011;10111;50.814;4.572;2023-02-08T15:59:27;4.23;;;3.07;;
19897;SDS011;10111;50.814;4.572;2023-02-08T16:01:56;3.23;;;2.50;;
19897;SDS011;10111;50.814;4.572;2023-02-08T16:04:24;5.47;;;3.43;;
19897;SDS011;10111;50.814;4.572;2023-02-08T16:06:51;4.47;;;2.87;;
19897;SDS011;10111;50.814;4.572;2023-02-08T16:09:20;5.70;;;2.97;;
19897;SDS011;10111;50.814;4.572;2023-02-08T16:11:52;3.33;;;2.90;;
19897;SDS011;10111;50.814;4.572;2023-02-08T16:14:24;4.03;;;3.07;;
19897;SDS011;10111;50.814;4.572;2023-02-08T16:16:52;8.93;;;3.13;;
19897;SDS011;10111;50.814;4.572;2023-02-08T16:21:53;6.57;;;3.83;;
19897;SDS011;10111;50.814;4.572;2023-02-08T16:24:30;5.23;;;3.30;;
19897;SDS011;10111;50.814;4.572;2023-02-08T16:27:05;4.80;;;3.10;;
19897;SDS011;10111;50.814;4.572;2023-02-08T16:29:41;8.03;;;3.60;;
19897;SDS011;10111;50.814;4.572;2023-02-08T16:32:18;7.90;;;3.70;;
19897;SDS011;10111;50.814;4.572;2023-02-08T16:34:45;10.43;;;3.33;;
19897;SDS011;10111;50.814;4.572;2023-02-08T16:37:30;4.47;;;3.07;;
19897;SDS011;10111;50.814;4.572;2023-02-08T16:39:58;7.93;;;3.10;;
19897;SDS011;10111;50.814;4.572;2023-02-08T16:42:35;5.33;;;3.40;;
19897;SDS011;10111;50.814;4.572;2023-02-08T16:47:42;5.00;;;3.63;;
19897;SDS011;10111;50.814;4.572;2023-02-08T16:50:22;4.40;;;2.90;;
19897;SDS011;10111;50.814;4.572;2023-02-08T16:52:51;4.67;;;3.23;;
19897;SDS011;10111;50.814;4.572;2023-02-08T16:55:20;7.17;;;3.97;;
19897;SDS011;10111;50.814;4.572;2023-02-08T16:57:52;5.67;;;3.57;;
19897;SDS011;10111;50.814;4.572;2023-02-08T17:00:21;3.93;;;3.30;;
19897;SDS011;10111;50.814;4.572;2023-02-08T17:02:47;6.40;;;3.97;;
19897;SDS011;10111;50.814;4.572;2023-02-08T17:05:12;7.60;;;3.40;;
19897;SDS011;10111;50.814;4.572;2023-02-08T17:07:39;4.57;;;2.97;;
19897;SDS011;10111;50.814;4.572;2023-02-08T17:10:06;6.20;;;3.07;;
19897;SDS011;10111;50.814;4.572;2023-02-08T17:12:32;7.87;;;3.83;;
19897;SDS011;10111;50.814;4.572;2023-02-08T17:14:58;5.50;;;3.30;;
19897;SDS011;10111;50.814;4.572;2023-02-08T17:17:24;4.37;;;3.50;;
19897;SDS011;10111;50.814;4.572;2023-02-08T17:19:49;9.03;;;4.13;;
19897;SDS011;10111;50.814;4.572;2023-02-08T17:22:15;6.43;;;3.50;;
19897;SDS011;10111;50.814;4.572;2023-02-08T17:24:41;5.40;;;3.53;;
19897;SDS011;10111;50.814;4.572;2023-02-08T17:27:10;6.67;;;3.43;;
19897;SDS011;10111;50.814;4.572;2023-02-08T17:29:37;5.47;;;4.20;;